sensor_id;sensor_type;location;lat;lon;timestamp;pressure;altitude;pressure_sealevel;temperature;humidity
3960;BME280;1994;48.640;8.894;2022-07-10T00:01:31;96828.16;;;18.18;71.90
3960;BME280;1994;48.640;8.894;2022-07-10T00:03:57;96820.53;;;18.26;72.19
3960;BME280;1994;48.640;8.894;2022-07-10T00:06:23;96820.78;;;18.30;72.08
3960;BME280;1994;48.640;8.894;2022-07-10T00:08:48;96819.50;;;18.32;71.40
3960;BME280;1994;48.640;8.894;2022-07-10T00:11:14;96824.75;;;18.32;71.57
3960;BME280;1994;48.640;8.894;2022-07-10T00:13:42;96821.09;;;18.33;71.75
3960;BME280;1994;48.640;8.894;2022-07-10T00:16:08;96823.97;;;18.42;71.99
3960;BME280;1994;48.640;8.894;2022-07-10T00:18:34;96824.47;;;18.39;71.72
3960;BME280;1994;48.640;8.894;2022-07-10T00:21:00;96822.91;;;18.38;71.56
3960;BME280;1994;48.640;8.894;2022-07-10T00:23:25;96815.84;;;18.33;71.69
3960;BME280;1994;48.640;8.894;2022-07-10T00:25:51;96820.81;;;18.20;71.97
3960;BME280;1994;48.640;8.894;2022-07-10T00:28:17;96821.88;;;18.14;72.28
3960;BME280;1994;48.640;8.894;2022-07-10T00:30:42;96816.63;;;18.14;72.36
3960;BME280;1994;48.640;8.894;2022-07-10T00:33:08;96816.09;;;18.12;72.49
3960;BME280;1994;48.640;8.894;2022-07-10T00:35:34;96813.22;;;18.18;72.58
3960;BME280;1994;48.640;8.894;2022-07-10T00:38:02;96810.34;;;18.10;72.63
3960;BME280;1994;48.640;8.894;2022-07-10T00:40:28;96810.34;;;18.10;72.92
3960;BME280;1994;48.640;8.894;2022-07-10T00:42:54;96812.97;;;18.10;73.17
3960;BME280;1994;48.640;8.894;2022-07-10T00:45:19;96809.78;;;18.13;73.09
3960;BME280;1994;48.640;8.894;2022-07-10T00:47:45;96810.34;;;18.20;73.23
3960;BME280;1994;48.640;8.894;2022-07-10T00:50:11;96805.34;;;18.23;72.84
3960;BME280;1994;48.640;8.894;2022-07-10T00:52:38;96808.25;;;18.32;72.28
3960;BME280;1994;48.640;8.894;2022-07-10T00:55:06;96803.00;;;18.37;72.36
3960;BME280;1994;48.640;8.894;2022-07-10T00:57:34;96807.19;;;18.38;72.10
3960;BME280;1994;48.640;8.894;2022-07-10T01:00:00;96789.88;;;18.32;72.44
3960;BME280;1994;48.640;8.894;2022-07-10T01:02:26;96795.63;;;18.24;72.67
3960;BME280;1994;48.640;8.894;2022-07-10T01:04:52;96788.81;;;18.33;72.41
3960;BME280;1994;48.640;8.894;2022-07-10T01:07:19;96794.06;;;18.23;73.05
3960;BME280;1994;48.640;8.894;2022-07-10T01:09:44;96784.63;;;18.12;73.71
3960;BME280;1994;48.640;8.894;2022-07-10T01:12:11;96783.06;;;18.06;73.69
3960;BME280;1994;48.640;8.894;2022-07-10T01:14:37;96790.13;;;18.10;74.03
3960;BME280;1994;48.640;8.894;2022-07-10T01:17:07;96786.19;;;18.08;74.13
3960;BME280;1994;48.640;8.894;2022-07-10T01:19:34;96776.25;;;18.05;74.15
3960;BME280;1994;48.640;8.894;2022-07-10T01:22:03;96777.81;;;18.06;74.11
3960;BME280;1994;48.640;8.894;2022-07-10T01:24:29;96779.94;;;18.14;73.64
3960;BME280;1994;48.640;8.894;2022-07-10T01:26:55;96775.69;;;18.23;73.61
3960;BME280;1994;48.640;8.894;2022-07-10T01:29:22;96776.75;;;18.22;73.09
3960;BME280;1994;48.640;8.894;2022-07-10T01:31:51;96778.63;;;18.06;73.58
3960;BME280;1994;48.640;8.894;2022-07-10T01:34:20;96776.81;;;17.92;74.33
3960;BME280;1994;48.640;8.894;2022-07-10T01:36:46;96781.50;;;17.85;74.65
3960;BME280;1994;48.640;8.894;2022-07-10T01:39:12;96782.56;;;17.79;74.97
3960;BME280;1994;48.640;8.894;2022-07-10T01:41:38;96780.22;;;17.67;75.23
3960;BME280;1994;48.640;8.894;2022-07-10T01:44:04;96785.94;;;17.54;75.96
3960;BME280;1994;48.640;8.894;2022-07-10T01:46:29;96778.34;;;17.53;76.15
3960;BME280;1994;48.640;8.894;2022-07-10T01:48:56;96779.94;;;17.54;76.26
3960;BME280;1994;48.640;8.894;2022-07-10T01:51:22;96775.72;;;17.53;76.27
3960;BME280;1994;48.640;8.894;2022-07-10T01:53:50;96769.97;;;17.56;76.45
3960;BME280;1994;48.640;8.894;2022-07-10T01:56:16;96771.53;;;17.47;76.64
3960;BME280;1994;48.640;8.894;2022-07-10T01:58:42;96767.34;;;17.56;76.36
3960;BME280;1994;48.640;8.894;2022-07-10T02:01:09;96769.97;;;17.51;76.62
3960;BME280;1994;48.640;8.894;2022-07-10T02:03:35;96782.00;;;17.52;76.60
3960;BME280;1994;48.640;8.894;2022-07-10T02:06:19;96769.97;;;17.46;76.78
3960;BME280;1994;48.640;8.894;2022-07-10T02:08:45;96775.19;;;17.41;76.96
3960;BME280;1994;48.640;8.894;2022-07-10T02:11:14;96780.44;;;17.41;77.36
3960;BME280;1994;48.640;8.894;2022-07-10T02:13:42;96774.94;;;17.42;77.30
3960;BME280;1994;48.640;8.894;2022-07-10T02:16:08;96773.06;;;17.33;77.66
3960;BME280;1994;48.640;8.894;2022-07-10T02:18:34;96779.84;;;17.29;77.53
3960;BME280;1994;48.640;8.894;2022-07-10T02:21:00;96777.25;;;17.29;77.71
3960;BME280;1994;48.640;8.894;2022-07-10T02:23:26;96782.47;;;17.29;77.91
3960;BME280;1994;48.640;8.894;2022-07-10T02:25:52;96779.63;;;17.35;77.76
3960;BME280;1994;48.640;8.894;2022-07-10T02:28:18;96780.94;;;17.38;77.73
3960;BME280;1994;48.640;8.894;2022-07-10T02:30:46;96779.34;;;17.37;78.07
3960;BME280;1994;48.640;8.894;2022-07-10T02:33:11;96780.94;;;17.38;77.52
3960;BME280;1994;48.640;8.894;2022-07-10T02:35:37;96781.94;;;17.32;77.70
3960;BME280;1994;48.640;8.894;2022-07-10T02:38:06;96782.97;;;17.21;78.40
3960;BME280;1994;48.640;8.894;2022-07-10T02:40:34;96777.22;;;17.19;78.57
3960;BME280;1994;48.640;8.894;2022-07-10T02:43:00;96793.19;;;17.22;79.06
3960;BME280;1994;48.640;8.894;2022-07-10T02:45:26;96786.91;;;17.28;78.66
3960;BME280;1994;48.640;8.894;2022-07-10T02:47:52;96786.41;;;17.31;78.82
3960;BME280;1994;48.640;8.894;2022-07-10T02:50:17;96783.53;;;17.33;79.12
3960;BME280;1994;48.640;8.894;2022-07-10T02:52:43;96787.72;;;17.34;79.59
3960;BME280;1994;48.640;8.894;2022-07-10T02:55:09;96775.69;;;17.38;79.31
3960;BME280;1994;48.640;8.894;2022-07-10T02:57:35;96777.78;;;17.36;79.29
3960;BME280;1994;48.640;8.894;2022-07-10T03:00:04;96792.22;;;17.38;80.07
3960;BME280;1994;48.640;8.894;2022-07-10T03:02:30;96790.13;;;17.40;80.01
3960;BME280;1994;48.640;8.894;2022-07-10T03:04:56;96792.47;;;17.42;79.94
3960;BME280;1994;48.640;8.894;2022-07-10T03:07:23;96795.59;;;17.34;80.11
3960;BME280;1994;48.640;8.894;2022-07-10T03:09:49;96795.59;;;17.34;80.18
3960;BME280;1994;48.640;8.894;2022-07-10T03:12:15;96786.69;;;17.35;80.61
3960;BME280;1994;48.640;8.894;2022-07-10T03:14:40;96778.81;;;17.30;81.19
3960;BME280;1994;48.640;8.894;2022-07-10T03:17:06;96781.94;;;17.32;81.09
3960;BME280;1994;48.640;8.894;2022-07-10T03:19:32;96787.19;;;17.32;80.76
3960;BME280;1994;48.640;8.894;2022-07-10T03:21:59;96782.97;;;17.26;81.25
3960;BME280;1994;48.640;8.894;2022-07-10T03:24:25;96783.53;;;17.28;81.05
3960;BME280;1994;48.640;8.894;2022-07-10T03:26:51;96789.81;;;17.27;81.63
3960;BME280;1994;48.640;8.894;2022-07-10T03:29:22;96789.81;;;17.27;81.63
3960;BME280;1994;48.640;8.894;2022-07-10T03:31:48;96793.16;;;17.17;81.87
3960;BME280;1994;48.640;8.894;2022-07-10T03:34:14;96790.81;;;17.21;82.02
3960;BME280;1994;48.640;8.894;2022-07-10T03:36:40;96790.06;;;17.20;81.34
3960;BME280;1994;48.640;8.894;2022-07-10T03:39:05;96786.63;;;17.15;82.10
3960;BME280;1994;48.640;8.894;2022-07-10T03:41:31;96788.75;;;17.23;81.92
3960;BME280;1994;48.640;8.894;2022-07-10T03:43:57;96794.50;;;17.20;82.06
3960;BME280;1994;48.640;8.894;2022-07-10T03:46:23;96789.53;;;17.23;81.67
3960;BME280;1994;48.640;8.894;2022-07-10T03:48:48;96793.19;;;17.22;81.72
3960;BME280;1994;48.640;8.894;2022-07-10T03:51:14;96791.13;;;17.24;81.90
3960;BME280;1994;48.640;8.894;2022-07-10T03:53:40;96787.69;;;17.19;81.91
3960;BME280;1994;48.640;8.894;2022-07-10T03:56:06;96784.81;;;17.20;81.87
3960;BME280;1994;48.640;8.894;2022-07-10T03:58:32;96789.25;;;17.20;81.89
3960;BME280;1994;48.640;8.894;2022-07-10T04:00:58;96790.31;;;17.24;81.41
3960;BME280;1994;48.640;8.894;2022-07-10T04:03:24;96789.53;;;17.13;81.87
3960;BME280;1994;48.640;8.894;2022-07-10T04:05:49;96787.16;;;17.17;81.70
3960;BME280;1994;48.640;8.894;2022-07-10T04:08:15;96782.97;;;17.16;81.34
3960;BME280;1994;48.640;8.894;2022-07-10T04:10:41;96779.31;;;17.12;81.61
3960;BME280;1994;48.640;8.894;2022-07-10T04:13:07;96782.44;;;17.19;81.46
3960;BME280;1994;48.640;8.894;2022-07-10T04:15:32;96784.56;;;17.17;81.33
3960;BME280;1994;48.640;8.894;2022-07-10T04:17:58;96782.44;;;17.19;81.30
3960;BME280;1994;48.640;8.894;2022-07-10T04:20:24;96777.47;;;17.22;80.94
3960;BME280;1994;48.640;8.894;2022-07-10T04:22:50;96782.97;;;17.26;80.51
3960;BME280;1994;48.640;8.894;2022-07-10T04:25:16;96779.06;;;17.28;79.99
3960;BME280;1994;48.640;8.894;2022-07-10T04:27:42;96783.53;;;17.33;79.82
3960;BME280;1994;48.640;8.894;2022-07-10T04:30:08;96783.53;;;17.33;80.10
3960;BME280;1994;48.640;8.894;2022-07-10T04:32:34;96784.56;;;17.37;79.65
3960;BME280;1994;48.640;8.894;2022-07-10T04:35:00;96794.56;;;17.40;79.41
3960;BME280;1994;48.640;8.894;2022-07-10T04:37:29;96790.09;;;17.35;79.55
3960;BME280;1994;48.640;8.894;2022-07-10T04:39:54;96800.81;;;17.34;79.59
3960;BME280;1994;48.640;8.894;2022-07-10T04:42:20;96796.41;;;17.39;79.40
3960;BME280;1994;48.640;8.894;2022-07-10T04:44:46;96801.09;;;17.37;78.75
3960;BME280;1994;48.640;8.894;2022-07-10T04:47:12;96795.59;;;17.34;78.99
3960;BME280;1994;48.640;8.894;2022-07-10T04:49:38;96794.53;;;17.30;79.14
3960;BME280;1994;48.640;8.894;2022-07-10T04:52:04;96798.72;;;17.36;78.32
3960;BME280;1994;48.640;8.894;2022-07-10T04:54:30;96794.53;;;17.30;77.82
3960;BME280;1994;48.640;8.894;2022-07-10T04:56:56;96800.81;;;17.29;77.91
3960;BME280;1994;48.640;8.894;2022-07-10T04:59:22;96803.97;;;17.36;77.45
3960;BME280;1994;48.640;8.894;2022-07-10T05:01:48;96813.38;;;17.37;76.97
3960;BME280;1994;48.640;8.894;2022-07-10T05:04:14;96805.84;;;17.45;76.09
3960;BME280;1994;48.640;8.894;2022-07-10T05:06:39;96818.16;;;17.45;75.75
3960;BME280;1994;48.640;8.894;2022-07-10T05:09:05;96810.81;;;17.47;75.03
3960;BME280;1994;48.640;8.894;2022-07-10T05:11:31;96816.06;;;17.52;74.40
3960;BME280;1994;48.640;8.894;2022-07-10T05:13:58;96810.81;;;17.47;74.85
3960;BME280;1994;48.640;8.894;2022-07-10T05:16:27;96809.00;;;17.52;74.43
3960;BME280;1994;48.640;8.894;2022-07-10T05:18:52;96812.38;;;17.48;74.54
3960;BME280;1994;48.640;8.894;2022-07-10T05:21:18;96810.81;;;17.47;74.27
3960;BME280;1994;48.640;8.894;2022-07-10T05:23:47;96811.63;;;17.47;73.99
3960;BME280;1994;48.640;8.894;2022-07-10T05:26:13;96815.56;;;17.55;73.70
3960;BME280;1994;48.640;8.894;2022-07-10T05:28:39;96820.78;;;17.50;73.78
3960;BME280;1994;48.640;8.894;2022-07-10T05:31:05;96816.63;;;17.54;73.60
3960;BME280;1994;48.640;8.894;2022-07-10T05:33:34;96817.13;;;17.56;73.69
3960;BME280;1994;48.640;8.894;2022-07-10T05:36:00;96819.22;;;17.59;73.40
3960;BME280;1994;48.640;8.894;2022-07-10T05:38:25;96823.94;;;17.52;72.70
3960;BME280;1994;48.640;8.894;2022-07-10T05:40:51;96820.25;;;17.43;73.70
3960;BME280;1994;48.640;8.894;2022-07-10T05:43:20;96832.84;;;17.51;73.18
3960;BME280;1994;48.640;8.894;2022-07-10T05:45:46;96828.13;;;17.58;72.94
3960;BME280;1994;48.640;8.894;2022-07-10T05:48:12;96837.56;;;17.54;73.07
3960;BME280;1994;48.640;8.894;2022-07-10T05:50:38;96829.72;;;17.54;73.39
3960;BME280;1994;48.640;8.894;2022-07-10T05:53:04;96833.84;;;17.40;73.52
3960;BME280;1994;48.640;8.894;2022-07-10T05:55:30;96835.97;;;17.43;73.37
3960;BME280;1994;48.640;8.894;2022-07-10T05:57:55;96833.38;;;17.58;72.57
3960;BME280;1994;48.640;8.894;2022-07-10T06:00:24;96842.81;;;17.64;72.57
3960;BME280;1994;48.640;8.894;2022-07-10T06:02:53;96841.22;;;17.63;72.32
3960;BME280;1994;48.640;8.894;2022-07-10T06:05:21;96840.22;;;17.79;72.16
3960;BME280;1994;48.640;8.894;2022-07-10T06:07:47;96842.84;;;17.89;69.46
3960;BME280;1994;48.640;8.894;2022-07-10T06:10:13;96838.63;;;17.78;69.05
3960;BME280;1994;48.640;8.894;2022-07-10T06:12:40;96841.25;;;17.83;69.49
3960;BME280;1994;48.640;8.894;2022-07-10T06:15:06;96838.09;;;17.81;69.36
3960;BME280;1994;48.640;8.894;2022-07-10T06:17:35;96836.53;;;17.80;68.96
3960;BME280;1994;48.640;8.894;2022-07-10T06:20:01;96837.09;;;17.87;69.48
3960;BME280;1994;48.640;8.894;2022-07-10T06:22:26;96849.66;;;17.95;68.99
3960;BME280;1994;48.640;8.894;2022-07-10T06:25:05;96849.66;;;18.00;68.60
3960;BME280;1994;48.640;8.894;2022-07-10T06:27:31;96849.41;;;17.91;67.97
3960;BME280;1994;48.640;8.894;2022-07-10T06:29:58;96854.38;;;17.98;67.85
3960;BME280;1994;48.640;8.894;2022-07-10T06:32:25;96855.69;;;18.00;67.64
3960;BME280;1994;48.640;8.894;2022-07-10T06:34:52;96853.84;;;17.91;67.73
3960;BME280;1994;48.640;8.894;2022-07-10T06:37:19;96858.56;;;17.84;67.06
3960;BME280;1994;48.640;8.894;2022-07-10T06:39:46;96860.66;;;18.02;67.39
3960;BME280;1994;48.640;8.894;2022-07-10T06:42:15;96854.91;;;18.05;66.38
3960;BME280;1994;48.640;8.894;2022-07-10T06:44:42;96857.00;;;18.13;66.60
3960;BME280;1994;48.640;8.894;2022-07-10T06:47:10;96857.00;;;18.43;65.98
3960;BME280;1994;48.640;8.894;2022-07-10T06:49:55;96860.13;;;18.55;64.66
3960;BME280;1994;48.640;8.894;2022-07-10T06:52:22;96860.88;;;18.65;63.77
3960;BME280;1994;48.640;8.894;2022-07-10T06:54:48;96860.34;;;18.88;62.08
3960;BME280;1994;48.640;8.894;2022-07-10T06:57:14;96858.47;;;18.84;61.97
3960;BME280;1994;48.640;8.894;2022-07-10T06:59:40;96863.25;;;18.77;62.73
3960;BME280;1994;48.640;8.894;2022-07-10T07:02:06;96869.00;;;18.79;62.77
3960;BME280;1994;48.640;8.894;2022-07-10T07:04:33;96861.63;;;18.96;61.52
3960;BME280;1994;48.640;8.894;2022-07-10T07:06:59;96873.44;;;18.93;61.09
3960;BME280;1994;48.640;8.894;2022-07-10T07:09:24;96882.66;;;18.86;61.28
3960;BME280;1994;48.640;8.894;2022-07-10T07:11:50;96886.84;;;18.82;61.43
3960;BME280;1994;48.640;8.894;2022-07-10T07:14:16;96895.31;;;18.54;62.33
3960;BME280;1994;48.640;8.894;2022-07-10T07:16:44;96894.75;;;18.57;61.80
3960;BME280;1994;48.640;8.894;2022-07-10T07:19:13;96893.75;;;18.53;62.63
3960;BME280;1994;48.640;8.894;2022-07-10T07:21:57;96893.44;;;18.19;62.90
3960;BME280;1994;48.640;8.894;2022-07-10T07:24:44;96894.22;;;18.30;63.55
3960;BME280;1994;48.640;8.894;2022-07-10T07:27:11;96901.81;;;18.21;62.76
3960;BME280;1994;48.640;8.894;2022-07-10T07:29:40;96894.00;;;18.36;62.66
3960;BME280;1994;48.640;8.894;2022-07-10T07:32:06;96902.13;;;18.55;61.45
3960;BME280;1994;48.640;8.894;2022-07-10T07:34:32;96887.91;;;18.76;61.03
3960;BME280;1994;48.640;8.894;2022-07-10T07:36:58;96896.25;;;18.98;59.66
3960;BME280;1994;48.640;8.894;2022-07-10T07:39:24;96888.84;;;19.15;58.31
3960;BME280;1994;48.640;8.894;2022-07-10T07:41:50;96887.75;;;19.36;58.01
3960;BME280;1994;48.640;8.894;2022-07-10T07:44:15;96892.41;;;19.49;57.62
3960;BME280;1994;48.640;8.894;2022-07-10T07:46:44;96891.88;;;19.52;57.26
3960;BME280;1994;48.640;8.894;2022-07-10T07:49:12;96888.75;;;19.50;57.60
3960;BME280;1994;48.640;8.894;2022-07-10T07:51:38;96881.41;;;19.42;57.27
3960;BME280;1994;48.640;8.894;2022-07-10T07:54:04;96882.88;;;19.63;58.08
3960;BME280;1994;48.640;8.894;2022-07-10T07:56:32;96876.97;;;19.42;56.85
3960;BME280;1994;48.640;8.894;2022-07-10T07:58:58;96875.00;;;19.63;56.67
3960;BME280;1994;48.640;8.894;2022-07-10T08:01:24;96876.50;;;19.74;55.98
3960;BME280;1994;48.640;8.894;2022-07-10T08:03:50;96878.00;;;19.90;55.60
3960;BME280;1994;48.640;8.894;2022-07-10T08:06:16;96876.09;;;20.34;54.44
3960;BME280;1994;48.640;8.894;2022-07-10T08:08:45;96874.94;;;20.11;54.14
3960;BME280;1994;48.640;8.894;2022-07-10T08:11:10;96873.81;;;19.84;54.08
3960;BME280;1994;48.640;8.894;2022-07-10T08:13:36;96867.97;;;19.92;54.91
3960;BME280;1994;48.640;8.894;2022-07-10T08:16:02;96872.75;;;19.85;53.90
3960;BME280;1994;48.640;8.894;2022-07-10T08:18:28;96870.06;;;19.95;54.37
3960;BME280;1994;48.640;8.894;2022-07-10T08:20:54;96868.63;;;19.74;54.47
3960;BME280;1994;48.640;8.894;2022-07-10T08:23:20;96873.63;;;20.14;53.74
3960;BME280;1994;48.640;8.894;2022-07-10T08:25:45;96876.91;;;20.58;53.25
3960;BME280;1994;48.640;8.894;2022-07-10T08:28:17;96865.97;;;21.03;51.16
3960;BME280;1994;48.640;8.894;2022-07-10T08:30:43;96864.72;;;21.19;51.60
3960;BME280;1994;48.640;8.894;2022-07-10T08:33:09;96868.66;;;20.98;52.39
3960;BME280;1994;48.640;8.894;2022-07-10T08:35:35;96872.25;;;20.78;51.77
3960;BME280;1994;48.640;8.894;2022-07-10T08:38:00;96859.25;;;20.92;52.68
3960;BME280;1994;48.640;8.894;2022-07-10T08:40:35;96866.94;;;21.30;51.19
3960;BME280;1994;48.640;8.894;2022-07-10T08:43:02;96864.84;;;21.09;51.73
3960;BME280;1994;48.640;8.894;2022-07-10T08:45:32;96860.28;;;20.91;52.56
3960;BME280;1994;48.640;8.894;2022-07-10T08:48:03;96864.09;;;20.75;52.63
3960;BME280;1994;48.640;8.894;2022-07-10T08:50:33;96859.50;;;20.62;53.81
3960;BME280;1994;48.640;8.894;2022-07-10T08:55:39;96845.63;;;20.80;53.58
3960;BME280;1994;48.640;8.894;2022-07-10T08:58:04;96850.59;;;21.10;53.13
3960;BME280;1994;48.640;8.894;2022-07-10T09:00:34;96853.91;;;21.39;51.81
3960;BME280;1994;48.640;8.894;2022-07-10T09:03:02;96853.22;;;21.52;50.13
3960;BME280;1994;48.640;8.894;2022-07-10T09:05:28;96849.16;;;21.78;49.95
3960;BME280;1994;48.640;8.894;2022-07-10T09:07:54;96849.53;;;21.90;48.75
3960;BME280;1994;48.640;8.894;2022-07-10T09:10:25;96849.53;;;21.90;49.14
3960;BME280;1994;48.640;8.894;2022-07-10T09:12:55;96859.22;;;22.13;49.60
3960;BME280;1994;48.640;8.894;2022-07-10T09:15:28;96864.84;;;22.38;49.29
3960;BME280;1994;48.640;8.894;2022-07-10T09:18:03;96866.22;;;22.68;47.35
3960;BME280;1994;48.640;8.894;2022-07-10T09:20:39;96876.59;;;22.78;46.00
3960;BME280;1994;48.640;8.894;2022-07-10T09:23:22;96870.81;;;22.76;46.23
3960;BME280;1994;48.640;8.894;2022-07-10T09:25:53;96870.16;;;22.97;45.49
3960;BME280;1994;48.640;8.894;2022-07-10T09:28:25;96871.72;;;23.12;44.97
3960;BME280;1994;48.640;8.894;2022-07-10T09:30:53;96870.72;;;22.81;45.85
3960;BME280;1994;48.640;8.894;2022-07-10T09:33:30;96871.16;;;22.24;47.16
3960;BME280;1994;48.640;8.894;2022-07-10T09:36:04;96879.06;;;21.92;48.77
3960;BME280;1994;48.640;8.894;2022-07-10T09:41:30;96889.44;;;21.65;48.99
3960;BME280;1994;48.640;8.894;2022-07-10T09:44:04;96876.91;;;21.94;47.23
3960;BME280;1994;48.640;8.894;2022-07-10T09:46:36;96881.91;;;21.77;47.65
3960;BME280;1994;48.640;8.894;2022-07-10T09:49:14;96882.66;;;21.17;48.46
3960;BME280;1994;48.640;8.894;2022-07-10T09:51:46;96872.69;;;21.14;49.05
3960;BME280;1994;48.640;8.894;2022-07-10T09:54:12;96872.78;;;21.04;49.79
3960;BME280;1994;48.640;8.894;2022-07-10T09:56:47;96873.72;;;21.55;50.39
3960;BME280;1994;48.640;8.894;2022-07-10T09:59:15;96870.00;;;21.98;49.36
3960;BME280;1994;48.640;8.894;2022-07-10T10:01:51;96871.63;;;21.94;49.51
3960;BME280;1994;48.640;8.894;2022-07-10T10:04:20;96862.94;;;22.44;48.55
3960;BME280;1994;48.640;8.894;2022-07-10T10:06:56;96866.69;;;22.38;46.52
3960;BME280;1994;48.640;8.894;2022-07-10T10:09:44;96872.72;;;22.25;47.36
3960;BME280;1994;48.640;8.894;2022-07-10T10:12:28;96875.00;;;21.81;48.65
3960;BME280;1994;48.640;8.894;2022-07-10T10:15:00;96868.50;;;21.92;49.51
3960;BME280;1994;48.640;8.894;2022-07-10T10:17:27;96872.88;;;22.15;46.91
3960;BME280;1994;48.640;8.894;2022-07-10T10:19:54;96863.91;;;22.48;44.92
3960;BME280;1994;48.640;8.894;2022-07-10T10:22:44;96858.28;;;22.36;45.96
3960;BME280;1994;48.640;8.894;2022-07-10T10:25:13;96846.16;;;22.35;43.73
3960;BME280;1994;48.640;8.894;2022-07-10T10:27:39;96856.19;;;22.51;45.35
3960;BME280;1994;48.640;8.894;2022-07-10T10:30:07;96847.03;;;22.76;43.61
3960;BME280;1994;48.640;8.894;2022-07-10T10:32:32;96849.34;;;22.50;46.17
3960;BME280;1994;48.640;8.894;2022-07-10T10:34:58;96839.00;;;22.54;44.51
3960;BME280;1994;48.640;8.894;2022-07-10T10:37:39;96844.88;;;22.64;44.47
3960;BME280;1994;48.640;8.894;2022-07-10T10:40:29;96838.63;;;22.87;45.15
3960;BME280;1994;48.640;8.894;2022-07-10T10:42:55;96836.56;;;22.98;44.20
3960;BME280;1994;48.640;8.894;2022-07-10T10:45:33;96845.69;;;22.92;43.96
3960;BME280;1994;48.640;8.894;2022-07-10T10:48:12;96833.72;;;22.54;44.33
3960;BME280;1994;48.640;8.894;2022-07-10T10:53:18;96826.69;;;22.90;43.83
3960;BME280;1994;48.640;8.894;2022-07-10T10:58:28;96825.91;;;23.30;43.84
3960;BME280;1994;48.640;8.894;2022-07-10T11:01:05;96826.75;;;23.52;44.44
3960;BME280;1994;48.640;8.894;2022-07-10T11:03:33;96824.66;;;23.63;43.51
3960;BME280;1994;48.640;8.894;2022-07-10T11:05:59;96830.16;;;23.53;43.74
3960;BME280;1994;48.640;8.894;2022-07-10T11:08:42;96824.25;;;23.69;43.04
3960;BME280;1994;48.640;8.894;2022-07-10T11:13:59;96826.78;;;23.74;41.72
3960;BME280;1994;48.640;8.894;2022-07-10T11:16:26;96831.84;;;23.84;41.50
3960;BME280;1994;48.640;8.894;2022-07-10T11:18:55;96841.72;;;23.57;41.66
3960;BME280;1994;48.640;8.894;2022-07-10T11:21:25;96842.13;;;23.64;41.36
3960;BME280;1994;48.640;8.894;2022-07-10T11:28:13;96825.91;;;23.65;41.45
3960;BME280;1994;48.640;8.894;2022-07-10T11:30:51;96823.19;;;23.92;40.08
3960;BME280;1994;48.640;8.894;2022-07-10T11:33:19;96821.66;;;23.78;39.48
3960;BME280;1994;48.640;8.894;2022-07-10T11:35:51;96819.69;;;23.97;41.04
3960;BME280;1994;48.640;8.894;2022-07-10T11:38:22;96822.13;;;23.93;38.90
3960;BME280;1994;48.640;8.894;2022-07-10T11:40:49;96827.88;;;23.38;39.61
3960;BME280;1994;48.640;8.894;2022-07-10T11:43:15;96823.91;;;23.49;42.05
3960;BME280;1994;48.640;8.894;2022-07-10T11:45:43;96816.72;;;23.85;41.19
3960;BME280;1994;48.640;8.894;2022-07-10T11:48:22;96827.13;;;23.95;41.08
3960;BME280;1994;48.640;8.894;2022-07-10T11:50:49;96824.69;;;24.07;40.33
3960;BME280;1994;48.640;8.894;2022-07-10T11:53:26;96817.25;;;24.09;38.86
3960;BME280;1994;48.640;8.894;2022-07-10T11:55:55;96822.66;;;24.26;39.75
3960;BME280;1994;48.640;8.894;2022-07-10T11:58:21;96819.56;;;24.54;39.41
3960;BME280;1994;48.640;8.894;2022-07-10T12:01:04;96818.69;;;24.67;39.45
3960;BME280;1994;48.640;8.894;2022-07-10T12:03:32;96810.81;;;24.23;39.37
3960;BME280;1994;48.640;8.894;2022-07-10T12:06:06;96820.66;;;24.92;37.99
3960;BME280;1994;48.640;8.894;2022-07-10T12:08:43;96812.38;;;24.55;37.14
3960;BME280;1994;48.640;8.894;2022-07-10T12:11:17;96824.94;;;24.41;38.91
3960;BME280;1994;48.640;8.894;2022-07-10T12:13:45;96820.44;;;24.50;38.97
3960;BME280;1994;48.640;8.894;2022-07-10T12:16:12;96814.91;;;24.60;38.24
3960;BME280;1994;48.640;8.894;2022-07-10T12:18:39;96814.56;;;24.53;38.20
3960;BME280;1994;48.640;8.894;2022-07-10T12:21:09;96806.16;;;24.29;39.17
3960;BME280;1994;48.640;8.894;2022-07-10T12:23:35;96822.28;;;24.63;37.83
3960;BME280;1994;48.640;8.894;2022-07-10T12:26:04;96820.81;;;24.57;36.59
3960;BME280;1994;48.640;8.894;2022-07-10T12:28:30;96818.69;;;24.67;37.87
3960;BME280;1994;48.640;8.894;2022-07-10T12:30:56;96820.31;;;24.85;35.77
3960;BME280;1994;48.640;8.894;2022-07-10T12:33:23;96813.34;;;24.98;35.87
3960;BME280;1994;48.640;8.894;2022-07-10T12:35:57;96817.09;;;24.97;36.85
3960;BME280;1994;48.640;8.894;2022-07-10T12:38:29;96812.50;;;24.50;36.87
3960;BME280;1994;48.640;8.894;2022-07-10T12:41:10;96821.63;;;25.05;35.48
3960;BME280;1994;48.640;8.894;2022-07-10T12:43:37;96816.19;;;25.10;35.82
3960;BME280;1994;48.640;8.894;2022-07-10T12:46:23;96822.06;;;25.37;36.01
3960;BME280;1994;48.640;8.894;2022-07-10T12:49:09;96813.44;;;25.32;34.22
3960;BME280;1994;48.640;8.894;2022-07-10T12:51:45;96820.81;;;25.43;34.98
3960;BME280;1994;48.640;8.894;2022-07-10T12:54:37;96829.72;;;25.56;33.78
3960;BME280;1994;48.640;8.894;2022-07-10T12:57:07;96816.47;;;25.98;33.27
3960;BME280;1994;48.640;8.894;2022-07-10T12:59:37;96821.63;;;25.61;32.86
3960;BME280;1994;48.640;8.894;2022-07-10T13:02:21;96817.84;;;25.45;33.41
3960;BME280;1994;48.640;8.894;2022-07-10T13:04:57;96818.16;;;26.03;33.89
3960;BME280;1994;48.640;8.894;2022-07-10T13:07:31;96822.66;;;26.36;33.73
3960;BME280;1994;48.640;8.894;2022-07-10T13:10:03;96820.25;;;26.52;32.48
3960;BME280;1994;48.640;8.894;2022-07-10T13:12:29;96827.50;;;26.34;32.11
3960;BME280;1994;48.640;8.894;2022-07-10T13:14:55;96817.84;;;26.13;33.43
3960;BME280;1994;48.640;8.894;2022-07-10T13:17:23;96818.28;;;26.40;32.54
3960;BME280;1994;48.640;8.894;2022-07-10T13:19:52;96823.41;;;26.54;32.45
3960;BME280;1994;48.640;8.894;2022-07-10T13:22:18;96821.53;;;26.46;31.57
3960;BME280;1994;48.640;8.894;2022-07-10T13:24:44;96815.31;;;26.25;32.45
3960;BME280;1994;48.640;8.894;2022-07-10T13:27:10;96812.47;;;26.64;32.30
3960;BME280;1994;48.640;8.894;2022-07-10T13:29:39;96814.56;;;26.79;31.57
3960;BME280;1994;48.640;8.894;2022-07-10T13:32:05;96815.91;;;26.56;31.48
3960;BME280;1994;48.640;8.894;2022-07-10T13:34:31;96816.66;;;26.65;31.06
3960;BME280;1994;48.640;8.894;2022-07-10T13:36:57;96826.56;;;26.93;30.89
3960;BME280;1994;48.640;8.894;2022-07-10T13:39:27;96829.31;;;27.05;31.22
3960;BME280;1994;48.640;8.894;2022-07-10T13:41:53;96817.81;;;27.22;30.44
3960;BME280;1994;48.640;8.894;2022-07-10T13:44:22;96827.59;;;27.01;31.56
3960;BME280;1994;48.640;8.894;2022-07-10T13:46:48;96822.75;;;27.03;31.20